Aeroporto :
LOGIN :

Iscrizione | Disclaimer

   EN    FR    IT 

 










Sommario :    VFR   VFR Marginale   IFR   IFR Intensivo   IFR Molto Intensivo
Visibilità : 
Base nubi : 
>= 8 km
>= 3000ft
5 / 8 km
1000 / 3000 ft
1500m / 5 km
500 / 1000 ft
800 / 1500m
200 / 500 ft
< 800m
< 200 ft
Simboli :   Temporali  Nebbia  Neve Forte  Precipitazioni Forti  Vento > 20 kt
SIGMETs :   Varie  Temporali  Ghiacco  Turbolenza  Onda orograficha  Ceneri Vulcaniche






- Altitudine del aeroporto : 6 ft
- Codice IATA : PSA


LIRP - Galileo Galilei Pisa

ULTIMO METAR :
  • 040145Z 10007KT 9999 BKN060 03/03 Q1003 NOSIG

METARs OBSOLETI :
  • 040115Z 10005KT 9999 BKN070 02/02 Q1003 NOSIG
  • 040045Z 10006KT 9999 BKN070 02/02 Q1003 NOSIG
  • 040015Z 10006KT 9999 SCT070 02/02 Q1004 NOSIG
  • 032315Z VRB02KT 8000 NSC 02/02 Q1004 NOSIG

TAF TAF LIRP
Valido dal 04 a 00 ore il 05 a 00 ore UTC


032300Z 0400/0424 07004KT 9999 SCT050
TEMPO 0403/0406 4000 BR
BECMG 0406/0409 11012KT BKN015 BKN030
BECMG 0412/0414 5000 TSRA FEW015CB BKN020



MetMap, La meteo Aeronautica in un colpo d'occhio ! - Copyright ORBIFLY Dicembre 2007 - Disclaimer

ORBIFLY MET'MAP TEAM :

Programmazione e sviluppo : Alexandra Zaïnal
Concezione : Baudouin d'Aumeries
Aiuto per la programmazione : Marc-Olivier Méhu
Supporto tecnico e logistico : Manuel Goepfert
Aiuto per la traduzione : Arnaldo La Scala

Contatto : metmap@orbifly.com




FONTI E CREDITI :

   NOAA